Al Jubail, Saudi Arabia
Current Conditions -  °F | °C
As of 4:00 PM on Monday 22 Dec 2014 (Local Time) from OEDF Reporting Station
Scattered Clouds Scattered Clouds  
Wind Chill: 70°   Ceiling: Unl
Heat Index: 70°   Visibility: 5mi
Dew Point: 37°   Wind: 17mph
Humidity: 31%   Direction: 330°NNW
Pressure: 29.97"   Gusts: NA
Location:  27.01754°N, 49.65477°E
Report Text: OEDF 221300Z 33015KT 8000 SCT040 21/03 Q1015 NOSIG
Loading
Personal Weather Stations






























Interactive Weather Map New forecast layout! Learn more

10-Day Weather Forecast

Advertisements
Track Severe Weather on mobile